sensor_id;sensor_type;location;lat;lon;timestamp;temperature;humidity
24326;DHT22;12448;45.532;5.290;2023-03-14T00:00:51;12.60;96.10
24326;DHT22;12448;45.532;5.290;2023-03-14T00:03:17;12.60;96.00
24326;DHT22;12448;45.532;5.290;2023-03-14T00:05:43;12.60;96.10
24326;DHT22;12448;45.532;5.290;2023-03-14T00:08:09;12.60;95.80
24326;DHT22;12448;45.532;5.290;2023-03-14T00:10:36;12.60;95.80
24326;DHT22;12448;45.532;5.290;2023-03-14T00:13:01;12.60;95.70
24326;DHT22;12448;45.532;5.290;2023-03-14T00:15:33;12.60;95.60
24326;DHT22;12448;45.532;5.290;2023-03-14T00:18:02;12.50;95.40
24326;DHT22;12448;45.532;5.290;2023-03-14T00:20:30;12.60;95.30
24326;DHT22;12448;45.532;5.290;2023-03-14T00:22:57;12.50;95.10
24326;DHT22;12448;45.532;5.290;2023-03-14T00:25:40;12.40;95.10
24326;DHT22;12448;45.532;5.290;2023-03-14T00:28:09;12.60;95.10
24326;DHT22;12448;45.532;5.290;2023-03-14T00:30:37;12.50;95.00
24326;DHT22;12448;45.532;5.290;2023-03-14T00:33:02;12.50;94.90
24326;DHT22;12448;45.532;5.290;2023-03-14T00:35:28;12.60;94.90
24326;DHT22;12448;45.532;5.290;2023-03-14T00:37:54;12.50;94.80
24326;DHT22;12448;45.532;5.290;2023-03-14T00:40:19;12.60;94.70
24326;DHT22;12448;45.532;5.290;2023-03-14T00:42:45;12.60;94.70
24326;DHT22;12448;45.532;5.290;2023-03-14T00:45:13;12.60;94.70
24326;DHT22;12448;45.532;5.290;2023-03-14T00:47:39;12.60;94.70
24326;DHT22;12448;45.532;5.290;2023-03-14T00:50:06;12.60;94.70
24326;DHT22;12448;45.532;5.290;2023-03-14T00:52:32;12.70;94.70
24326;DHT22;12448;45.532;5.290;2023-03-14T00:54:57;12.70;94.60
24326;DHT22;12448;45.532;5.290;2023-03-14T00:57:23;12.70;94.50
24326;DHT22;12448;45.532;5.290;2023-03-14T00:59:50;12.60;94.30
24326;DHT22;12448;45.532;5.290;2023-03-14T01:02:16;12.70;94.40
24326;DHT22;12448;45.532;5.290;2023-03-14T01:04:42;12.70;94.60
24326;DHT22;12448;45.532;5.290;2023-03-14T01:07:08;12.70;94.60
24326;DHT22;12448;45.532;5.290;2023-03-14T01:09:34;12.50;94.50
24326;DHT22;12448;45.532;5.290;2023-03-14T01:12:00;12.70;94.90
24326;DHT22;12448;45.532;5.290;2023-03-14T01:14:25;12.70;94.90
24326;DHT22;12448;45.532;5.290;2023-03-14T01:16:51;12.80;94.60
24326;DHT22;12448;45.532;5.290;2023-03-14T01:19:17;12.70;94.50
24326;DHT22;12448;45.532;5.290;2023-03-14T01:21:42;12.70;94.40
24326;DHT22;12448;45.532;5.290;2023-03-14T01:24:11;12.60;94.40
24326;DHT22;12448;45.532;5.290;2023-03-14T01:26:37;12.70;94.40
24326;DHT22;12448;45.532;5.290;2023-03-14T01:29:03;12.70;94.40
24326;DHT22;12448;45.532;5.290;2023-03-14T01:31:29;12.50;94.20
24326;DHT22;12448;45.532;5.290;2023-03-14T01:33:55;12.60;94.30
24326;DHT22;12448;45.532;5.290;2023-03-14T01:36:20;12.60;94.40
24326;DHT22;12448;45.532;5.290;2023-03-14T01:38:46;12.40;94.40
24326;DHT22;12448;45.532;5.290;2023-03-14T01:41:15;12.40;94.40
24326;DHT22;12448;45.532;5.290;2023-03-14T01:43:41;12.50;94.40
24326;DHT22;12448;45.532;5.290;2023-03-14T01:48:38;12.50;94.20
24326;DHT22;12448;45.532;5.290;2023-03-14T01:51:09;12.40;94.00
24326;DHT22;12448;45.532;5.290;2023-03-14T01:53:37;12.40;94.00
24326;DHT22;12448;45.532;5.290;2023-03-14T01:56:03;12.40;94.00
24326;DHT22;12448;45.532;5.290;2023-03-14T01:58:31;12.50;94.00
24326;DHT22;12448;45.532;5.290;2023-03-14T02:01:02;12.50;93.80
24326;DHT22;12448;45.532;5.290;2023-03-14T02:03:29;12.70;93.70
24326;DHT22;12448;45.532;5.290;2023-03-14T02:05:59;12.40;93.60
24326;DHT22;12448;45.532;5.290;2023-03-14T02:08:31;12.50;93.60
24326;DHT22;12448;45.532;5.290;2023-03-14T02:10:57;12.50;93.50
24326;DHT22;12448;45.532;5.290;2023-03-14T02:13:23;12.90;93.40
24326;DHT22;12448;45.532;5.290;2023-03-14T02:15:49;12.40;93.10
24326;DHT22;12448;45.532;5.290;2023-03-14T02:18:16;12.40;93.40
24326;DHT22;12448;45.532;5.290;2023-03-14T02:26:34;12.20;92.80
24326;DHT22;12448;45.532;5.290;2023-03-14T02:29:01;12.20;92.90
24326;DHT22;12448;45.532;5.290;2023-03-14T02:31:27;12.10;92.90
24326;DHT22;12448;45.532;5.290;2023-03-14T02:33:53;12.20;92.90
24326;DHT22;12448;45.532;5.290;2023-03-14T02:36:21;12.20;92.90
24326;DHT22;12448;45.532;5.290;2023-03-14T02:41:32;12.10;92.50
24326;DHT22;12448;45.532;5.290;2023-03-14T02:43:57;12.20;92.50
24326;DHT22;12448;45.532;5.290;2023-03-14T02:46:32;12.10;92.30
24326;DHT22;12448;45.532;5.290;2023-03-14T02:49:03;12.10;92.20
24326;DHT22;12448;45.532;5.290;2023-03-14T02:51:29;12.10;92.00
24326;DHT22;12448;45.532;5.290;2023-03-14T02:53:55;12.10;91.70
24326;DHT22;12448;45.532;5.290;2023-03-14T02:56:30;12.10;91.70
24326;DHT22;12448;45.532;5.290;2023-03-14T02:58:56;12.10;91.60
24326;DHT22;12448;45.532;5.290;2023-03-14T03:01:23;12.10;91.50
24326;DHT22;12448;45.532;5.290;2023-03-14T03:03:53;12.20;91.50
24326;DHT22;12448;45.532;5.290;2023-03-14T03:06:19;12.30;91.40
24326;DHT22;12448;45.532;5.290;2023-03-14T03:08:45;12.10;91.10
24326;DHT22;12448;45.532;5.290;2023-03-14T03:11:11;12.10;91.00
24326;DHT22;12448;45.532;5.290;2023-03-14T03:13:37;12.10;91.00
24326;DHT22;12448;45.532;5.290;2023-03-14T03:16:03;12.10;91.00
24326;DHT22;12448;45.532;5.290;2023-03-14T03:18:29;12.10;91.00
24326;DHT22;12448;45.532;5.290;2023-03-14T03:21:04;11.50;90.60
24326;DHT22;12448;45.532;5.290;2023-03-14T03:23:34;12.10;90.80
24326;DHT22;12448;45.532;5.290;2023-03-14T03:26:00;12.00;90.70
24326;DHT22;12448;45.532;5.290;2023-03-14T03:28:28;11.90;90.60
24326;DHT22;12448;45.532;5.290;2023-03-14T03:30:53;12.00;90.70
24326;DHT22;12448;45.532;5.290;2023-03-14T03:33:22;11.90;90.70
24326;DHT22;12448;45.532;5.290;2023-03-14T03:35:51;11.90;90.70
24326;DHT22;12448;45.532;5.290;2023-03-14T03:38:17;11.90;90.70
24326;DHT22;12448;45.532;5.290;2023-03-14T03:40:45;11.90;90.60
24326;DHT22;12448;45.532;5.290;2023-03-14T03:43:11;11.90;90.50
24326;DHT22;12448;45.532;5.290;2023-03-14T03:45:37;11.70;90.50
24326;DHT22;12448;45.532;5.290;2023-03-14T03:48:02;12.20;90.70
24326;DHT22;12448;45.532;5.290;2023-03-14T03:50:28;11.90;90.70
24326;DHT22;12448;45.532;5.290;2023-03-14T03:52:54;11.90;90.70
24326;DHT22;12448;45.532;5.290;2023-03-14T03:55:20;11.90;90.90
24326;DHT22;12448;45.532;5.290;2023-03-14T03:57:45;11.90;90.90
24326;DHT22;12448;45.532;5.290;2023-03-14T04:00:11;11.80;91.00
24326;DHT22;12448;45.532;5.290;2023-03-14T04:02:38;11.80;91.10
24326;DHT22;12448;45.532;5.290;2023-03-14T04:05:04;11.70;91.20
24326;DHT22;12448;45.532;5.290;2023-03-14T04:07:32;11.70;91.30
24326;DHT22;12448;45.532;5.290;2023-03-14T04:09:57;11.60;91.50
24326;DHT22;12448;45.532;5.290;2023-03-14T04:12:23;11.70;91.60
24326;DHT22;12448;45.532;5.290;2023-03-14T04:14:49;12.00;91.80
24326;DHT22;12448;45.532;5.290;2023-03-14T04:17:14;12.10;91.90
24326;DHT22;12448;45.532;5.290;2023-03-14T04:20:07;11.60;91.80
24326;DHT22;12448;45.532;5.290;2023-03-14T04:22:37;11.60;91.70
24326;DHT22;12448;45.532;5.290;2023-03-14T04:25:21;11.60;91.70
24326;DHT22;12448;45.532;5.290;2023-03-14T04:27:48;11.60;91.70
24326;DHT22;12448;45.532;5.290;2023-03-14T04:30:13;11.50;91.70
24326;DHT22;12448;45.532;5.290;2023-03-14T04:32:39;11.40;91.80
24326;DHT22;12448;45.532;5.290;2023-03-14T04:35:05;11.50;91.90
24326;DHT22;12448;45.532;5.290;2023-03-14T04:37:31;11.30;91.90
24326;DHT22;12448;45.532;5.290;2023-03-14T04:39:57;11.20;91.90
24326;DHT22;12448;45.532;5.290;2023-03-14T04:42:23;11.20;91.90
24326;DHT22;12448;45.532;5.290;2023-03-14T04:44:48;11.30;92.10
24326;DHT22;12448;45.532;5.290;2023-03-14T04:47:15;11.30;92.10
24326;DHT22;12448;45.532;5.290;2023-03-14T04:49:41;11.20;92.00
24326;DHT22;12448;45.532;5.290;2023-03-14T04:52:06;11.20;92.00
24326;DHT22;12448;45.532;5.290;2023-03-14T04:54:32;11.30;91.70
24326;DHT22;12448;45.532;5.290;2023-03-14T04:56:57;11.30;91.90
24326;DHT22;12448;45.532;5.290;2023-03-14T04:59:23;11.30;91.90
24326;DHT22;12448;45.532;5.290;2023-03-14T05:01:52;11.30;92.30
24326;DHT22;12448;45.532;5.290;2023-03-14T05:04:24;11.40;92.10
24326;DHT22;12448;45.532;5.290;2023-03-14T05:06:49;11.30;92.00
24326;DHT22;12448;45.532;5.290;2023-03-14T05:09:15;11.30;92.00
24326;DHT22;12448;45.532;5.290;2023-03-14T05:11:41;11.30;92.10
24326;DHT22;12448;45.532;5.290;2023-03-14T05:14:07;11.30;92.20
24326;DHT22;12448;45.532;5.290;2023-03-14T05:16:32;11.20;92.30
24326;DHT22;12448;45.532;5.290;2023-03-14T05:18:58;11.20;92.80
24326;DHT22;12448;45.532;5.290;2023-03-14T05:21:24;11.30;92.50
24326;DHT22;12448;45.532;5.290;2023-03-14T05:23:49;11.80;92.40
24326;DHT22;12448;45.532;5.290;2023-03-14T05:26:15;11.30;92.20
24326;DHT22;12448;45.532;5.290;2023-03-14T05:28:42;11.20;92.20
24326;DHT22;12448;45.532;5.290;2023-03-14T05:31:09;11.10;92.20
24326;DHT22;12448;45.532;5.290;2023-03-14T05:33:34;11.10;92.20
24326;DHT22;12448;45.532;5.290;2023-03-14T05:36:00;11.10;92.20
24326;DHT22;12448;45.532;5.290;2023-03-14T05:38:26;11.00;92.10
24326;DHT22;12448;45.532;5.290;2023-03-14T05:40:51;11.00;92.20
24326;DHT22;12448;45.532;5.290;2023-03-14T05:43:17;11.00;92.20
24326;DHT22;12448;45.532;5.290;2023-03-14T05:45:42;11.00;92.20
24326;DHT22;12448;45.532;5.290;2023-03-14T05:48:08;11.00;92.30
24326;DHT22;12448;45.532;5.290;2023-03-14T05:50:34;11.40;92.40
24326;DHT22;12448;45.532;5.290;2023-03-14T05:52:59;10.80;92.30
24326;DHT22;12448;45.532;5.290;2023-03-14T05:55:25;10.80;92.40
24326;DHT22;12448;45.532;5.290;2023-03-14T05:57:51;11.00;92.30
24326;DHT22;12448;45.532;5.290;2023-03-14T06:00:29;10.80;92.30
24326;DHT22;12448;45.532;5.290;2023-03-14T06:02:55;10.90;92.70
24326;DHT22;12448;45.532;5.290;2023-03-14T06:05:21;10.90;92.50
24326;DHT22;12448;45.532;5.290;2023-03-14T06:07:46;10.80;92.50
24326;DHT22;12448;45.532;5.290;2023-03-14T06:10:12;10.90;92.60
24326;DHT22;12448;45.532;5.290;2023-03-14T06:12:38;10.90;92.60
24326;DHT22;12448;45.532;5.290;2023-03-14T06:15:04;10.70;92.80
24326;DHT22;12448;45.532;5.290;2023-03-14T06:17:30;10.70;92.70
24326;DHT22;12448;45.532;5.290;2023-03-14T06:19:55;10.70;92.70
24326;DHT22;12448;45.532;5.290;2023-03-14T06:22:21;10.60;92.80
24326;DHT22;12448;45.532;5.290;2023-03-14T06:24:47;10.70;92.80
24326;DHT22;12448;45.532;5.290;2023-03-14T06:27:12;11.20;92.90
24326;DHT22;12448;45.532;5.290;2023-03-14T06:29:38;10.70;92.80
24326;DHT22;12448;45.532;5.290;2023-03-14T06:32:04;10.80;92.70
24326;DHT22;12448;45.532;5.290;2023-03-14T06:34:30;10.90;92.60
24326;DHT22;12448;45.532;5.290;2023-03-14T06:36:56;10.90;92.50
24326;DHT22;12448;45.532;5.290;2023-03-14T06:39:22;10.90;92.50
24326;DHT22;12448;45.532;5.290;2023-03-14T06:41:47;11.00;92.50
24326;DHT22;12448;45.532;5.290;2023-03-14T06:44:13;10.80;92.40
24326;DHT22;12448;45.532;5.290;2023-03-14T06:46:38;11.40;92.50
24326;DHT22;12448;45.532;5.290;2023-03-14T06:49:04;11.60;92.40
24326;DHT22;12448;45.532;5.290;2023-03-14T06:51:29;11.60;92.40
24326;DHT22;12448;45.532;5.290;2023-03-14T06:53:55;11.10;92.20
24326;DHT22;12448;45.532;5.290;2023-03-14T06:56:21;11.10;92.20
24326;DHT22;12448;45.532;5.290;2023-03-14T06:58:46;11.10;92.20
24326;DHT22;12448;45.532;5.290;2023-03-14T07:01:21;11.10;92.40
24326;DHT22;12448;45.532;5.290;2023-03-14T07:03:48;11.10;92.50
24326;DHT22;12448;45.532;5.290;2023-03-14T07:06:13;11.00;92.70
24326;DHT22;12448;45.532;5.290;2023-03-14T07:08:39;11.00;92.80
24326;DHT22;12448;45.532;5.290;2023-03-14T07:11:05;11.60;93.10
24326;DHT22;12448;45.532;5.290;2023-03-14T07:13:30;11.00;93.00
24326;DHT22;12448;45.532;5.290;2023-03-14T07:15:56;11.00;93.00
24326;DHT22;12448;45.532;5.290;2023-03-14T07:18:22;10.90;93.10
24326;DHT22;12448;45.532;5.290;2023-03-14T07:20:47;11.20;93.30
24326;DHT22;12448;45.532;5.290;2023-03-14T07:23:13;11.40;93.40
24326;DHT22;12448;45.532;5.290;2023-03-14T07:25:39;11.20;93.40
24326;DHT22;12448;45.532;5.290;2023-03-14T07:28:04;10.90;93.40
24326;DHT22;12448;45.532;5.290;2023-03-14T07:30:30;10.90;93.60
24326;DHT22;12448;45.532;5.290;2023-03-14T07:32:56;11.10;93.60
24326;DHT22;12448;45.532;5.290;2023-03-14T07:35:21;10.90;93.70
24326;DHT22;12448;45.532;5.290;2023-03-14T07:37:47;11.40;93.90
24326;DHT22;12448;45.532;5.290;2023-03-14T07:40:13;10.90;93.80
24326;DHT22;12448;45.532;5.290;2023-03-14T07:42:41;10.80;93.90
24326;DHT22;12448;45.532;5.290;2023-03-14T07:45:08;10.90;94.10
24326;DHT22;12448;45.532;5.290;2023-03-14T07:47:33;10.80;94.10
24326;DHT22;12448;45.532;5.290;2023-03-14T07:49:59;10.80;94.20
24326;DHT22;12448;45.532;5.290;2023-03-14T07:52:24;10.70;94.30
24326;DHT22;12448;45.532;5.290;2023-03-14T07:54:50;10.60;94.40
24326;DHT22;12448;45.532;5.290;2023-03-14T07:57:16;11.00;94.60
24326;DHT22;12448;45.532;5.290;2023-03-14T07:59:42;10.70;94.50
24326;DHT22;12448;45.532;5.290;2023-03-14T08:02:11;10.90;94.60
24326;DHT22;12448;45.532;5.290;2023-03-14T08:04:38;10.70;94.60
24326;DHT22;12448;45.532;5.290;2023-03-14T08:07:04;10.70;94.70
24326;DHT22;12448;45.532;5.290;2023-03-14T08:09:30;11.00;94.80
24326;DHT22;12448;45.532;5.290;2023-03-14T08:11:56;10.80;94.70
24326;DHT22;12448;45.532;5.290;2023-03-14T08:14:21;11.10;94.80
24326;DHT22;12448;45.532;5.290;2023-03-14T08:16:50;10.90;94.80
24326;DHT22;12448;45.532;5.290;2023-03-14T08:19:15;11.40;94.90
24326;DHT22;12448;45.532;5.290;2023-03-14T08:21:44;10.90;94.80
24326;DHT22;12448;45.532;5.290;2023-03-14T08:24:16;10.90;94.80
24326;DHT22;12448;45.532;5.290;2023-03-14T08:26:50;11.00;94.80
24326;DHT22;12448;45.532;5.290;2023-03-14T08:29:16;11.00;94.90
24326;DHT22;12448;45.532;5.290;2023-03-14T08:31:51;10.90;95.00
24326;DHT22;12448;45.532;5.290;2023-03-14T08:34:17;11.00;95.40
24326;DHT22;12448;45.532;5.290;2023-03-14T08:36:49;11.00;95.10
24326;DHT22;12448;45.532;5.290;2023-03-14T08:39:15;10.80;95.00
24326;DHT22;12448;45.532;5.290;2023-03-14T08:41:41;10.90;95.10
24326;DHT22;12448;45.532;5.290;2023-03-14T08:44:08;11.30;95.30
24326;DHT22;12448;45.532;5.290;2023-03-14T08:46:35;11.00;95.30
24326;DHT22;12448;45.532;5.290;2023-03-14T08:49:00;11.60;95.40
24326;DHT22;12448;45.532;5.290;2023-03-14T08:51:26;11.00;95.20
24326;DHT22;12448;45.532;5.290;2023-03-14T08:53:52;11.20;95.30
24326;DHT22;12448;45.532;5.290;2023-03-14T08:56:17;11.00;95.30
24326;DHT22;12448;45.532;5.290;2023-03-14T08:58:43;11.60;95.50
24326;DHT22;12448;45.532;5.290;2023-03-14T09:01:10;11.00;95.40
24326;DHT22;12448;45.532;5.290;2023-03-14T09:03:36;11.00;95.50
24326;DHT22;12448;45.532;5.290;2023-03-14T09:06:06;11.30;95.60
24326;DHT22;12448;45.532;5.290;2023-03-14T09:08:32;11.00;95.90
24326;DHT22;12448;45.532;5.290;2023-03-14T09:10:59;11.00;95.80
24326;DHT22;12448;45.532;5.290;2023-03-14T09:13:24;11.00;96.00
24326;DHT22;12448;45.532;5.290;2023-03-14T09:15:51;10.80;96.00
24326;DHT22;12448;45.532;5.290;2023-03-14T09:18:17;10.90;96.10
24326;DHT22;12448;45.532;5.290;2023-03-14T09:20:43;10.80;96.20
24326;DHT22;12448;45.532;5.290;2023-03-14T09:23:08;10.90;96.30
24326;DHT22;12448;45.532;5.290;2023-03-14T09:25:34;11.00;96.50
24326;DHT22;12448;45.532;5.290;2023-03-14T09:28:00;10.80;96.40
24326;DHT22;12448;45.532;5.290;2023-03-14T09:30:25;11.20;96.80
24326;DHT22;12448;45.532;5.290;2023-03-14T09:32:51;10.50;96.80
24326;DHT22;12448;45.532;5.290;2023-03-14T09:35:17;10.70;97.20
24326;DHT22;12448;45.532;5.290;2023-03-14T09:37:42;10.20;96.40
24326;DHT22;12448;45.532;5.290;2023-03-14T09:40:12;10.50;97.00
24326;DHT22;12448;45.532;5.290;2023-03-14T09:42:39;9.90;96.70
24326;DHT22;12448;45.532;5.290;2023-03-14T09:45:11;10.30;95.70
24326;DHT22;12448;45.532;5.290;2023-03-14T09:47:39;9.60;95.60
24326;DHT22;12448;45.532;5.290;2023-03-14T09:50:10;10.00;95.00
24326;DHT22;12448;45.532;5.290;2023-03-14T09:52:40;9.50;94.70
24326;DHT22;12448;45.532;5.290;2023-03-14T09:55:17;9.60;94.50
24326;DHT22;12448;45.532;5.290;2023-03-14T09:57:45;9.90;94.30
24326;DHT22;12448;45.532;5.290;2023-03-14T10:00:17;9.90;94.10
24326;DHT22;12448;45.532;5.290;2023-03-14T10:02:57;9.50;92.90
24326;DHT22;12448;45.532;5.290;2023-03-14T10:05:25;9.60;93.00
24326;DHT22;12448;45.532;5.290;2023-03-14T10:07:53;9.50;93.30
24326;DHT22;12448;45.532;5.290;2023-03-14T10:10:21;9.40;92.00
24326;DHT22;12448;45.532;5.290;2023-03-14T10:12:54;10.00;92.90
24326;DHT22;12448;45.532;5.290;2023-03-14T10:15:23;9.90;92.70
24326;DHT22;12448;45.532;5.290;2023-03-14T10:17:50;9.80;92.60
24326;DHT22;12448;45.532;5.290;2023-03-14T10:20:35;9.70;93.10
24326;DHT22;12448;45.532;5.290;2023-03-14T10:25:42;9.40;91.60
24326;DHT22;12448;45.532;5.290;2023-03-14T10:28:27;9.50;91.60
24326;DHT22;12448;45.532;5.290;2023-03-14T10:30:53;9.50;93.10
24326;DHT22;12448;45.532;5.290;2023-03-14T10:36:32;9.40;94.40
24326;DHT22;12448;45.532;5.290;2023-03-14T10:41:50;9.80;94.70
24326;DHT22;12448;45.532;5.290;2023-03-14T10:44:21;9.60;94.60
24326;DHT22;12448;45.532;5.290;2023-03-14T10:46:55;10.00;94.60
24326;DHT22;12448;45.532;5.290;2023-03-14T10:49:30;9.70;94.00
24326;DHT22;12448;45.532;5.290;2023-03-14T10:54:57;9.70;93.90
24326;DHT22;12448;45.532;5.290;2023-03-14T10:57:30;9.70;94.10
24326;DHT22;12448;45.532;5.290;2023-03-14T11:00:13;9.60;93.80
24326;DHT22;12448;45.532;5.290;2023-03-14T11:03:04;9.80;93.80
24326;DHT22;12448;45.532;5.290;2023-03-14T11:06:14;9.70;93.70
24326;DHT22;12448;45.532;5.290;2023-03-14T11:09:39;10.10;93.80
24326;DHT22;12448;45.532;5.290;2023-03-14T11:15:58;9.80;93.90
24326;DHT22;12448;45.532;5.290;2023-03-14T11:18:51;9.90;93.80
24326;DHT22;12448;45.532;5.290;2023-03-14T11:22:21;10.20;93.90
24326;DHT22;12448;45.532;5.290;2023-03-14T11:25:05;10.20;93.50
24326;DHT22;12448;45.532;5.290;2023-03-14T11:27:52;10.30;93.70
24326;DHT22;12448;45.532;5.290;2023-03-14T11:30:26;10.40;93.10
24326;DHT22;12448;45.532;5.290;2023-03-14T11:33:34;10.30;92.70
24326;DHT22;12448;45.532;5.290;2023-03-14T11:36:09;10.30;92.50
24326;DHT22;12448;45.532;5.290;2023-03-14T11:38:49;10.40;92.80
24326;DHT22;12448;45.532;5.290;2023-03-14T11:41:39;10.50;92.90
24326;DHT22;12448;45.532;5.290;2023-03-14T11:44:35;10.50;92.00
24326;DHT22;12448;45.532;5.290;2023-03-14T11:50:40;10.70;91.60
24326;DHT22;12448;45.532;5.290;2023-03-14T11:53:35;10.80;91.50
24326;DHT22;12448;45.532;5.290;2023-03-14T12:13:08;11.60;90.20
24326;DHT22;12448;45.532;5.290;2023-03-14T12:19:36;11.90;90.50
24326;DHT22;12448;45.532;5.290;2023-03-14T12:22:33;12.00;90.50
24326;DHT22;12448;45.532;5.290;2023-03-14T12:42:59;11.00;90.10
24326;DHT22;12448;45.532;5.290;2023-03-14T12:46:08;12.20;90.60
24326;DHT22;12448;45.532;5.290;2023-03-14T12:49:56;11.60;90.40
24326;DHT22;12448;45.532;5.290;2023-03-14T13:16:39;12.10;88.20
24326;DHT22;12448;45.532;5.290;2023-03-14T13:19:36;12.00;88.70
24326;DHT22;12448;45.532;5.290;2023-03-14T13:22:48;12.10;89.60
24326;DHT22;12448;45.532;5.290;2023-03-14T13:25:41;12.10;90.00
24326;DHT22;12448;45.532;5.290;2023-03-14T13:28:22;12.10;90.10
24326;DHT22;12448;45.532;5.290;2023-03-14T13:31:26;12.10;89.10
24326;DHT22;12448;45.532;5.290;2023-03-14T13:37:26;11.80;89.10
24326;DHT22;12448;45.532;5.290;2023-03-14T13:40:21;11.60;88.60
24326;DHT22;12448;45.532;5.290;2023-03-14T13:43:35;11.40;88.40
24326;DHT22;12448;45.532;5.290;2023-03-14T13:47:01;11.30;88.30
24326;DHT22;12448;45.532;5.290;2023-03-14T13:50:00;11.30;88.70
24326;DHT22;12448;45.532;5.290;2023-03-14T13:52:39;11.30;89.60
24326;DHT22;12448;45.532;5.290;2023-03-14T13:55:25;11.40;90.70
24326;DHT22;12448;45.532;5.290;2023-03-14T13:57:57;11.70;90.70
24326;DHT22;12448;45.532;5.290;2023-03-14T14:07:40;11.60;89.40
24326;DHT22;12448;45.532;5.290;2023-03-14T14:10:30;11.00;85.40
24326;DHT22;12448;45.532;5.290;2023-03-14T14:13:10;10.30;88.00
24326;DHT22;12448;45.532;5.290;2023-03-14T14:16:02;10.00;88.00
24326;DHT22;12448;45.532;5.290;2023-03-14T14:18:30;9.90;89.30
24326;DHT22;12448;45.532;5.290;2023-03-14T14:20:56;9.90;90.40
24326;DHT22;12448;45.532;5.290;2023-03-14T14:23:27;10.20;90.60
24326;DHT22;12448;45.532;5.290;2023-03-14T14:25:56;10.50;90.80
24326;DHT22;12448;45.532;5.290;2023-03-14T14:28:38;10.30;90.40
24326;DHT22;12448;45.532;5.290;2023-03-14T14:34:58;10.70;89.30
24326;DHT22;12448;45.532;5.290;2023-03-14T14:37:27;10.80;90.10
24326;DHT22;12448;45.532;5.290;2023-03-14T14:39:55;11.00;89.40
24326;DHT22;12448;45.532;5.290;2023-03-14T14:42:35;11.00;89.40
24326;DHT22;12448;45.532;5.290;2023-03-14T14:45:23;11.00;87.00
24326;DHT22;12448;45.532;5.290;2023-03-14T14:48:56;10.90;87.60
24326;DHT22;12448;45.532;5.290;2023-03-14T14:51:05;10.90;87.00
24326;DHT22;12448;45.532;5.290;2023-03-14T14:53:42;11.00;85.80
24326;DHT22;12448;45.532;5.290;2023-03-14T14:57:04;11.00;86.60
24326;DHT22;12448;45.532;5.290;2023-03-14T14:59:48;11.20;84.90
24326;DHT22;12448;45.532;5.290;2023-03-14T15:02:51;11.00;83.20
24326;DHT22;12448;45.532;5.290;2023-03-14T15:05:25;10.90;85.00
24326;DHT22;12448;45.532;5.290;2023-03-14T15:08:10;10.90;83.10
24326;DHT22;12448;45.532;5.290;2023-03-14T15:10:42;11.20;83.40
24326;DHT22;12448;45.532;5.290;2023-03-14T15:13:34;10.80;83.00
24326;DHT22;12448;45.532;5.290;2023-03-14T15:16:02;10.90;84.80
24326;DHT22;12448;45.532;5.290;2023-03-14T15:18:29;10.80;83.70
24326;DHT22;12448;45.532;5.290;2023-03-14T15:20:55;10.80;84.30
24326;DHT22;12448;45.532;5.290;2023-03-14T15:23:21;10.80;83.50
24326;DHT22;12448;45.532;5.290;2023-03-14T15:25:48;10.80;83.20
24326;DHT22;12448;45.532;5.290;2023-03-14T15:28:20;10.70;83.00
24326;DHT22;12448;45.532;5.290;2023-03-14T15:30:51;10.80;83.70
24326;DHT22;12448;45.532;5.290;2023-03-14T15:36:29;10.60;83.00
24326;DHT22;12448;45.532;5.290;2023-03-14T15:39:25;10.50;83.10
24326;DHT22;12448;45.532;5.290;2023-03-14T15:42:04;10.50;83.20
24326;DHT22;12448;45.532;5.290;2023-03-14T15:44:39;11.20;84.20
24326;DHT22;12448;45.532;5.290;2023-03-14T15:47:10;10.60;83.10
24326;DHT22;12448;45.532;5.290;2023-03-14T15:49:50;10.70;83.60
24326;DHT22;12448;45.532;5.290;2023-03-14T15:52:45;10.80;83.80
24326;DHT22;12448;45.532;5.290;2023-03-14T15:55:47;10.70;81.60
24326;DHT22;12448;45.532;5.290;2023-03-14T15:58:42;10.80;81.60
24326;DHT22;12448;45.532;5.290;2023-03-14T16:01:39;10.70;81.10
24326;DHT22;12448;45.532;5.290;2023-03-14T16:05:02;10.80;80.30
24326;DHT22;12448;45.532;5.290;2023-03-14T16:07:05;10.80;80.50
24326;DHT22;12448;45.532;5.290;2023-03-14T16:09:31;10.70;80.40
24326;DHT22;12448;45.532;5.290;2023-03-14T16:11:57;10.80;78.40
24326;DHT22;12448;45.532;5.290;2023-03-14T16:14:23;10.80;76.40
24326;DHT22;12448;45.532;5.290;2023-03-14T16:16:49;10.80;76.60
24326;DHT22;12448;45.532;5.290;2023-03-14T16:19:14;11.20;75.30
24326;DHT22;12448;45.532;5.290;2023-03-14T16:22:09;10.50;73.00
24326;DHT22;12448;45.532;5.290;2023-03-14T16:24:40;10.50;75.20
24326;DHT22;12448;45.532;5.290;2023-03-14T16:27:09;11.00;76.50
24326;DHT22;12448;45.532;5.290;2023-03-14T16:29:41;10.50;77.10
24326;DHT22;12448;45.532;5.290;2023-03-14T16:32:08;10.60;78.20
24326;DHT22;12448;45.532;5.290;2023-03-14T16:34:37;10.60;78.50
24326;DHT22;12448;45.532;5.290;2023-03-14T16:37:04;10.60;78.70
24326;DHT22;12448;45.532;5.290;2023-03-14T16:39:30;10.60;78.90
24326;DHT22;12448;45.532;5.290;2023-03-14T16:41:57;10.80;79.40
24326;DHT22;12448;45.532;5.290;2023-03-14T16:44:23;10.90;78.70
24326;DHT22;12448;45.532;5.290;2023-03-14T16:46:49;10.60;78.80
24326;DHT22;12448;45.532;5.290;2023-03-14T16:49:15;11.20;79.70
24326;DHT22;12448;45.532;5.290;2023-03-14T16:51:44;10.60;80.20
24326;DHT22;12448;45.532;5.290;2023-03-14T16:54:10;10.70;79.30
24326;DHT22;12448;45.532;5.290;2023-03-14T16:56:47;10.60;78.90
24326;DHT22;12448;45.532;5.290;2023-03-14T16:59:18;10.60;78.70
24326;DHT22;12448;45.532;5.290;2023-03-14T17:01:43;10.60;79.20
24326;DHT22;12448;45.532;5.290;2023-03-14T17:04:09;10.60;79.70
24326;DHT22;12448;45.532;5.290;2023-03-14T17:06:37;10.40;79.90
24326;DHT22;12448;45.532;5.290;2023-03-14T17:09:09;10.60;80.00
24326;DHT22;12448;45.532;5.290;2023-03-14T17:15:14;10.50;79.80
24326;DHT22;12448;45.532;5.290;2023-03-14T17:18:02;10.60;80.30
24326;DHT22;12448;45.532;5.290;2023-03-14T17:20:32;10.50;79.70
24326;DHT22;12448;45.532;5.290;2023-03-14T17:22:58;10.50;79.60
24326;DHT22;12448;45.532;5.290;2023-03-14T17:25:24;10.50;80.20
24326;DHT22;12448;45.532;5.290;2023-03-14T17:27:50;10.50;79.40
24326;DHT22;12448;45.532;5.290;2023-03-14T17:30:16;10.50;79.80
24326;DHT22;12448;45.532;5.290;2023-03-14T17:32:41;10.50;80.30
24326;DHT22;12448;45.532;5.290;2023-03-14T17:35:07;10.50;80.30
24326;DHT22;12448;45.532;5.290;2023-03-14T17:37:36;10.50;80.60
24326;DHT22;12448;45.532;5.290;2023-03-14T17:40:05;10.40;82.10
24326;DHT22;12448;45.532;5.290;2023-03-14T17:42:37;10.40;81.80
24326;DHT22;12448;45.532;5.290;2023-03-14T17:48:08;10.30;83.80
24326;DHT22;12448;45.532;5.290;2023-03-14T17:50:43;10.20;82.50
24326;DHT22;12448;45.532;5.290;2023-03-14T17:53:36;10.20;83.00
24326;DHT22;12448;45.532;5.290;2023-03-14T17:56:06;10.20;83.00